createdAt,value
2023-04-22T00:00:03.202Z,0.02
2023-04-22T00:01:02.812Z,0.03
2023-04-22T00:02:03.192Z,0.01
2023-04-22T00:03:03.015Z,0.03
2023-04-22T00:04:03.412Z,0.02
2023-04-22T00:05:02.898Z,0.02
2023-04-22T00:06:02.986Z,0.02
2023-04-22T00:07:03.406Z,0.02
2023-04-22T00:08:03.146Z,0.02
2023-04-22T00:09:03.539Z,0.01
2023-04-22T00:10:03.070Z,0.02
2023-04-22T00:11:03.263Z,0.02
2023-04-22T00:12:02.698Z,0.02
2023-04-22T00:13:02.297Z,0.02
2023-04-22T00:14:02.292Z,0.02
2023-04-22T00:15:02.698Z,0.03
2023-04-22T00:16:02.440Z,0.02
2023-04-22T00:17:03.445Z,0.02
2023-04-22T00:18:02.976Z,0.02
2023-04-22T00:19:03.441Z,0.02
2023-04-22T00:20:02.866Z,0.02
2023-04-22T00:21:03.157Z,0.02
2023-04-22T00:22:02.524Z,0.02
2023-04-22T00:23:02.178Z,0.03
2023-04-22T00:24:02.583Z,0.02
2023-04-22T00:25:02.018Z,0.01
2023-04-22T00:26:02.440Z,0.02
2023-04-22T00:27:02.895Z,0.03
2023-04-22T00:28:02.601Z,0.02
2023-04-22T00:29:02.380Z,0.02
2023-04-22T00:30:02.743Z,0.01
2023-04-22T00:31:02.394Z,0.02
2023-04-22T00:32:03.461Z,0.02
2023-04-22T00:33:02.964Z,0.02
2023-04-22T00:34:03.411Z,0.02
2023-04-22T00:35:02.988Z,0.02
2023-04-22T00:36:03.390Z,0.02
2023-04-22T00:37:02.584Z,0.02
2023-04-22T00:38:02.317Z,0.02
2023-04-22T00:39:02.077Z,0.02
2023-04-22T00:40:02.505Z,0.01
2023-04-22T00:41:02.050Z,0.02
2023-04-22T00:42:02.782Z,0.01
2023-04-22T00:43:02.505Z,0.02
2023-04-22T00:44:02.929Z,0.02
2023-04-22T00:45:02.678Z,0.03
2023-04-22T00:46:02.993Z,0.02
2023-04-22T00:47:03.327Z,0.01
2023-04-22T00:48:03.088Z,0.02
2023-04-22T00:49:03.090Z,0.03
2023-04-22T00:50:02.763Z,0.03
2023-04-22T00:51:03.091Z,0.02
2023-04-22T00:52:03.468Z,0.02
2023-04-22T00:53:02.959Z,0.03
2023-04-22T00:54:03.438Z,0.02
2023-04-22T00:55:02.921Z,0.02
2023-04-22T00:56:03.016Z,0.02
2023-04-22T00:57:02.806Z,0.01
2023-04-22T00:58:02.606Z,0.02
2023-04-22T00:59:02.976Z,0.03
2023-04-22T01:00:02.757Z,0.02
2023-04-22T01:01:02.587Z,0.02
2023-04-22T01:02:02.772Z,0.02
2023-04-22T01:03:02.746Z,0.02
2023-04-22T01:04:02.229Z,0.02
2023-04-22T01:05:02.700Z,0.02
2023-04-22T01:06:02.278Z,0.02
2023-04-22T01:07:01.814Z,0.02
2023-04-22T01:08:01.872Z,0.02
2023-04-22T01:09:02.205Z,0.03
2023-04-22T01:10:01.604Z,0.02
2023-04-22T01:11:02.011Z,0.02
2023-04-22T01:12:02.407Z,0.02
2023-04-22T01:13:02.708Z,0.02
2023-04-22T01:14:02.433Z,0.02
2023-04-22T01:15:04.693Z,0.02
2023-04-22T01:16:02.828Z,0.01
2023-04-22T01:17:02.058Z,0.02
2023-04-22T01:18:02.295Z,0.02
2023-04-22T01:19:02.046Z,0.02
2023-04-22T01:20:01.865Z,0.02
2023-04-22T01:21:02.291Z,0.02
2023-04-22T01:22:02.862Z,0.02
2023-04-22T01:23:03.198Z,0.02
2023-04-22T01:24:02.630Z,0.02
2023-04-22T01:25:02.980Z,0.02
2023-04-22T01:26:02.893Z,0.02
2023-04-22T01:27:02.343Z,0.02
2023-04-22T01:28:02.193Z,0.02
2023-04-22T01:29:02.648Z,0.02
2023-04-22T01:30:02.366Z,0.02
2023-04-22T01:31:02.256Z,0.02
2023-04-22T01:32:02.535Z,0.02
2023-04-22T01:33:02.866Z,0.03
2023-04-22T01:34:02.435Z,0.02
2023-04-22T01:35:02.539Z,0.02
2023-04-22T01:36:02.968Z,0.02
2023-04-22T01:37:02.395Z,0.02
2023-04-22T01:38:02.178Z,0.02
2023-04-22T01:39:02.367Z,0.02
2023-04-22T01:40:02.087Z,0.02
2023-04-22T01:41:02.580Z,0.02
2023-04-22T01:42:02.083Z,0.02
2023-04-22T01:43:01.946Z,0.02
2023-04-22T01:44:02.245Z,0.01
2023-04-22T01:45:01.976Z,0.02
2023-04-22T01:46:02.012Z,0.02
2023-04-22T01:47:02.603Z,0.02
2023-04-22T01:48:02.352Z,0.03
2023-04-22T01:49:02.265Z,0.01
2023-04-22T01:50:02.150Z,0.02
2023-04-22T01:51:02.571Z,0.03
2023-04-22T01:52:02.237Z,0.03
2023-04-22T01:53:01.936Z,0.02
2023-04-22T01:54:02.168Z,0.02
2023-04-22T01:55:01.824Z,0.02
2023-04-22T01:56:01.680Z,0.02
2023-04-22T01:57:02.215Z,0.02
2023-04-22T01:58:01.699Z,0.02
2023-04-22T01:59:01.927Z,0.02
2023-04-22T02:00:01.644Z,0.02
2023-04-22T02:01:02.275Z,0.02
2023-04-22T02:02:03.233Z,0.01
2023-04-22T02:03:03.365Z,0.02
2023-04-22T02:04:03.038Z,0.02
2023-04-22T02:05:03.473Z,0.01
2023-04-22T02:06:03.248Z,0.02
2023-04-22T02:07:03.684Z,0.01
2023-04-22T02:08:03.589Z,0.02
2023-04-22T02:09:03.331Z,0.02
2023-04-22T02:10:03.895Z,0.02
2023-04-22T02:11:03.444Z,0.03
2023-04-22T02:12:03.048Z,0.02
2023-04-22T02:13:02.843Z,0.03
2023-04-22T02:14:02.655Z,0.02
2023-04-22T02:15:03.135Z,0.01
2023-04-22T02:16:02.702Z,0.02
2023-04-22T02:17:03.246Z,0.01
2023-04-22T02:18:03.081Z,0.02
2023-04-22T02:19:02.801Z,0.02
2023-04-22T02:20:02.844Z,0.01
2023-04-22T02:21:02.982Z,0.01
2023-04-22T02:22:03.467Z,0.02
2023-04-22T02:23:03.322Z,0.02
2023-04-22T02:24:03.166Z,0.02
2023-04-22T02:25:03.632Z,0.02
2023-04-22T02:26:03.241Z,0.03
2023-04-22T02:27:03.537Z,0.03
2023-04-22T02:28:03.423Z,0.02
2023-04-22T02:29:03.979Z,0.02
2023-04-22T02:30:03.672Z,0.02
2023-04-22T02:31:03.505Z,0.02
2023-04-22T02:32:03.060Z,0.02
2023-04-22T02:33:02.899Z,0.02
2023-04-22T02:34:02.634Z,0.02
2023-04-22T02:35:03.046Z,0.02
2023-04-22T02:36:02.799Z,0.02
2023-04-22T02:37:03.245Z,0.02
2023-04-22T02:38:03.011Z,0.02
2023-04-22T02:39:02.825Z,0.01
2023-04-22T02:40:02.677Z,0.03
2023-04-22T02:41:03.104Z,0.02
2023-04-22T02:42:03.594Z,0.01
2023-04-22T02:43:03.561Z,0.02
2023-04-22T02:44:03.457Z,0.02
2023-04-22T02:45:03.316Z,0.02
2023-04-22T02:46:03.151Z,0.02
2023-04-22T02:47:03.285Z,0.02
2023-04-22T02:48:02.927Z,0.02
2023-04-22T02:49:03.050Z,0.03
2023-04-22T02:50:03.058Z,0.01
2023-04-22T02:51:02.876Z,0.02
2023-04-22T02:52:03.349Z,0.02
2023-04-22T02:53:02.888Z,0.02
2023-04-22T02:54:03.134Z,0.03
2023-04-22T02:55:02.925Z,0.02
2023-04-22T02:56:02.759Z,0.02
2023-04-22T02:57:03.799Z,0.03
2023-04-22T02:58:03.269Z,0.02
2023-04-22T02:59:03.687Z,0.02
2023-04-22T03:00:03.795Z,0.02
2023-04-22T03:01:03.847Z,0.02
2023-04-22T03:02:03.859Z,0.02
2023-04-22T03:03:03.000Z,0.02
2023-04-22T03:04:03.050Z,0.02
2023-04-22T03:05:02.615Z,0.02
2023-04-22T03:06:02.628Z,0.02
2023-04-22T03:07:02.272Z,0.02
2023-04-22T03:08:02.407Z,0.02
2023-04-22T03:09:02.600Z,0.02
2023-04-22T03:10:02.423Z,0.02
2023-04-22T03:11:02.470Z,0.02
2023-04-22T03:12:02.788Z,0.02
2023-04-22T03:13:02.592Z,0.02
2023-04-22T03:14:02.383Z,0.02
2023-04-22T03:15:02.596Z,0.02
2023-04-22T03:16:02.619Z,0.01
2023-04-22T03:17:02.657Z,0.01
2023-04-22T03:18:02.890Z,0.02
2023-04-22T03:19:02.600Z,0.02
2023-04-22T03:20:02.392Z,0.02
2023-04-22T03:21:02.263Z,0.02
2023-04-22T03:22:01.782Z,0.02
2023-04-22T03:23:02.277Z,0.02
2023-04-22T03:24:02.037Z,0.02
2023-04-22T03:25:01.895Z,0.02
2023-04-22T03:26:01.723Z,0.03
2023-04-22T03:27:02.185Z,0.02
2023-04-22T03:28:02.353Z,0.02
2023-04-22T03:29:02.684Z,0.01
2023-04-22T03:30:02.186Z,0.02
2023-04-22T03:31:02.656Z,0.03
2023-04-22T03:32:02.008Z,0.02
2023-04-22T03:33:02.488Z,0.02
2023-04-22T03:34:01.990Z,0.02
2023-04-22T03:35:01.859Z,0.02
2023-04-22T03:36:02.191Z,0.02
2023-04-22T03:37:01.918Z,0.02
2023-04-22T03:38:02.325Z,0.02
2023-04-22T03:39:01.827Z,0.02
2023-04-22T03:40:02.071Z,0.02
2023-04-22T03:41:01.873Z,0.02
2023-04-22T03:42:02.271Z,0.02
2023-04-22T03:43:02.524Z,0.02
2023-04-22T03:44:02.488Z,0.02
2023-04-22T03:45:02.789Z,0.02
2023-04-22T03:46:02.337Z,0.02
2023-04-22T03:47:02.044Z,0.02
2023-04-22T03:48:01.715Z,0.02
2023-04-22T03:49:02.176Z,0.01
2023-04-22T03:50:01.865Z,0.02
2023-04-22T03:51:02.341Z,0.02
2023-04-22T03:52:02.468Z,0.02
2023-04-22T03:53:02.486Z,0.02
2023-04-22T03:54:02.398Z,0.02
2023-04-22T03:55:02.514Z,0.02
2023-04-22T03:56:02.502Z,0.02
2023-04-22T03:57:02.061Z,0.02
2023-04-22T03:58:02.382Z,0.02
2023-04-22T03:59:01.905Z,0.02
2023-04-22T04:00:02.141Z,0.02
2023-04-22T04:01:02.195Z,0.02
2023-04-22T04:02:02.764Z,0.02
2023-04-22T04:03:02.814Z,0.02
2023-04-22T04:04:02.900Z,0.03
2023-04-22T04:05:02.882Z,0.02
2023-04-22T04:06:02.588Z,0.02
2023-04-22T04:07:03.082Z,0.02
2023-04-22T04:08:02.875Z,0.03
2023-04-22T04:09:02.798Z,0.02
2023-04-22T04:10:02.629Z,0.02
2023-04-22T04:11:03.113Z,0.03
2023-04-22T04:12:02.683Z,0.03
2023-04-22T04:13:02.721Z,0.02
2023-04-22T04:14:03.281Z,0.02
2023-04-22T04:15:02.985Z,0.02
2023-04-22T04:16:03.038Z,0.03
2023-04-22T04:17:02.583Z,0.02
2023-04-22T04:18:02.528Z,0.03
2023-04-22T04:19:02.403Z,0.03
2023-04-22T04:20:02.318Z,0.03
2023-04-22T04:21:02.175Z,0.03
2023-04-22T04:22:02.850Z,0.04
2023-04-22T04:23:02.691Z,0.03
2023-04-22T04:24:02.514Z,0.03
2023-04-22T04:25:02.839Z,0.03
2023-04-22T04:26:02.591Z,0.03
2023-04-22T04:27:03.171Z,0.03
2023-04-22T04:28:03.460Z,0.03
2023-04-22T04:29:03.372Z,0.04
2023-04-22T04:30:03.136Z,0.04
2023-04-22T04:31:03.129Z,0.04
2023-04-22T04:32:02.950Z,0.03
2023-04-22T04:33:02.919Z,0.05
2023-04-22T04:34:03.014Z,0.05
2023-04-22T04:35:02.693Z,0.05
2023-04-22T04:36:02.955Z,0.05
2023-04-22T04:37:01.939Z,0.05
2023-04-22T04:38:02.503Z,0.05
2023-04-22T04:39:02.216Z,0.05
2023-04-22T04:40:02.131Z,0.06
2023-04-22T04:41:02.051Z,0.06
2023-04-22T04:42:02.725Z,0.06
2023-04-22T04:43:02.745Z,0.06
2023-04-22T04:44:02.459Z,0.08
2023-04-22T04:45:02.515Z,0.08
2023-04-22T04:46:02.381Z,0.08
2023-04-22T04:47:03.171Z,0.09
2023-04-22T04:48:02.960Z,0.09
2023-04-22T04:49:02.617Z,0.09
2023-04-22T04:50:02.549Z,0.09
2023-04-22T04:51:03.175Z,0.09
2023-04-22T04:52:02.577Z,0.10
2023-04-22T04:53:01.975Z,0.11
2023-04-22T04:54:02.590Z,0.11
2023-04-22T04:55:01.986Z,0.11
2023-04-22T04:56:02.630Z,0.11
2023-04-22T04:57:02.909Z,0.12
2023-04-22T04:58:02.398Z,0.12
2023-04-22T04:59:02.931Z,0.12
2023-04-22T05:00:02.672Z,0.11
2023-04-22T05:01:02.896Z,0.11
2023-04-22T05:02:02.773Z,0.11
2023-04-22T05:03:02.620Z,0.10
2023-04-22T05:04:02.714Z,0.11
2023-04-22T05:05:02.473Z,0.10
2023-04-22T05:06:02.526Z,0.10
2023-04-22T05:07:03.081Z,0.11
2023-04-22T05:08:03.002Z,0.11
2023-04-22T05:09:02.910Z,0.11
2023-04-22T05:10:02.782Z,0.12
2023-04-22T05:11:02.960Z,0.13
2023-04-22T05:12:03.466Z,0.14
2023-04-22T05:13:04.267Z,0.13
2023-04-22T05:14:03.009Z,0.14
2023-04-22T05:15:02.935Z,0.15
2023-04-22T05:16:03.546Z,0.15
2023-04-22T05:17:02.989Z,0.15
2023-04-22T05:18:02.502Z,0.17
2023-04-22T05:19:02.467Z,0.18
2023-04-22T05:20:02.394Z,0.19
2023-04-22T05:21:02.990Z,0.20
2023-04-22T05:22:02.024Z,0.23
2023-04-22T05:23:02.305Z,0.24
2023-04-22T05:24:02.254Z,0.24
2023-04-22T05:25:02.298Z,0.27
2023-04-22T05:26:02.263Z,0.28
2023-04-22T05:27:02.137Z,0.31
2023-04-22T05:28:02.744Z,0.33
2023-04-22T05:29:02.489Z,0.35
2023-04-22T05:30:02.404Z,0.38
2023-04-22T05:31:02.249Z,0.41
2023-04-22T05:32:02.284Z,0.43
2023-04-22T05:33:02.393Z,0.43
2023-04-22T05:34:02.202Z,0.45
2023-04-22T05:35:02.710Z,0.48
2023-04-22T05:36:02.350Z,0.48
2023-04-22T05:37:02.227Z,0.48
2023-04-22T05:38:02.387Z,0.49
2023-04-22T05:39:02.386Z,0.49
2023-04-22T05:40:02.188Z,0.49
2023-04-22T05:41:02.184Z,0.51
2023-04-22T05:42:02.855Z,0.65
2023-04-22T05:43:02.800Z,0.72
2023-04-22T05:44:03.056Z,0.70
2023-04-22T05:45:02.960Z,0.64
2023-04-22T05:46:03.012Z,0.62
2023-04-22T05:47:02.252Z,0.65
2023-04-22T05:48:02.198Z,0.77
2023-04-22T05:49:02.134Z,0.80
2023-04-22T05:50:01.973Z,0.71
2023-04-22T05:51:02.576Z,0.60
2023-04-22T05:52:02.391Z,0.58
2023-04-22T05:53:02.511Z,0.63
2023-04-22T05:54:02.424Z,0.70
2023-04-22T05:55:02.575Z,0.87
2023-04-22T05:56:02.516Z,0.85
2023-04-22T05:57:02.454Z,0.92
2023-04-22T05:58:02.950Z,0.83
2023-04-22T05:59:02.705Z,0.85
2023-04-22T06:00:02.723Z,0.88
2023-04-22T06:01:02.687Z,0.85
2023-04-22T06:02:01.786Z,0.78
2023-04-22T06:03:01.951Z,0.75
2023-04-22T06:04:01.847Z,0.72
2023-04-22T06:05:02.267Z,0.70
2023-04-22T06:06:02.359Z,0.70
2023-04-22T06:07:02.006Z,0.76
2023-04-22T06:08:01.848Z,0.68
2023-04-22T06:09:02.395Z,0.56
2023-04-22T06:10:04.600Z,0.58
2023-04-22T06:11:02.245Z,0.60
2023-04-22T06:12:02.260Z,0.51
2023-04-22T06:13:02.644Z,0.48
2023-04-22T06:14:02.313Z,0.46
2023-04-22T06:15:02.181Z,0.46
2023-04-22T06:16:02.633Z,0.46
2023-04-22T06:17:02.574Z,0.46
2023-04-22T06:18:02.586Z,0.48
2023-04-22T06:19:02.593Z,0.49
2023-04-22T06:20:02.367Z,0.53
2023-04-22T06:21:02.279Z,0.54
2023-04-22T06:22:02.006Z,0.57
2023-04-22T06:23:02.035Z,0.60
2023-04-22T06:24:02.430Z,0.63
2023-04-22T06:25:02.245Z,0.64
2023-04-22T06:26:02.058Z,0.66
2023-04-22T06:27:01.984Z,0.68
2023-04-22T06:28:01.994Z,0.69
2023-04-22T06:29:02.061Z,0.69
2023-04-22T06:30:01.973Z,0.70
2023-04-22T06:31:02.001Z,0.69
2023-04-22T06:32:02.616Z,0.69
2023-04-22T06:33:02.565Z,0.66
2023-04-22T06:34:02.434Z,0.65
2023-04-22T06:35:03.027Z,0.64
2023-04-22T06:36:02.726Z,0.62
2023-04-22T06:37:02.664Z,0.62
2023-04-22T06:38:02.902Z,0.62
2023-04-22T06:39:02.773Z,0.61
2023-04-22T06:40:02.623Z,0.61
2023-04-22T06:41:02.786Z,0.63
2023-04-22T06:42:01.899Z,0.62
2023-04-22T06:43:01.759Z,0.62
2023-04-22T06:44:01.505Z,0.63
2023-04-22T06:45:02.102Z,0.63
2023-04-22T06:46:01.854Z,0.62
2023-04-22T06:47:02.404Z,0.61
2023-04-22T06:48:02.676Z,0.61
2023-04-22T06:49:02.816Z,0.66
2023-04-22T06:50:02.537Z,0.87
2023-04-22T06:51:02.816Z,0.84
2023-04-22T06:52:01.955Z,1.35
2023-04-22T06:53:01.916Z,1.35
2023-04-22T06:54:01.849Z,1.36
2023-04-22T06:55:01.800Z,1.35
2023-04-22T06:56:01.778Z,1.32
2023-04-22T06:57:02.403Z,1.32
2023-04-22T06:58:02.379Z,1.33
2023-04-22T06:59:02.548Z,1.17
2023-04-22T07:00:02.564Z,1.16
2023-04-22T07:01:02.350Z,0.95
2023-04-22T07:02:03.108Z,0.89
2023-04-22T07:03:03.200Z,0.91
2023-04-22T07:04:03.138Z,1.08
2023-04-22T07:05:03.203Z,0.96
2023-04-22T07:06:03.024Z,1.04
2023-04-22T07:07:03.556Z,1.28
2023-04-22T07:08:03.942Z,1.22
2023-04-22T07:09:03.596Z,1.29
2023-04-22T07:10:03.401Z,1.27
2023-04-22T07:11:03.932Z,1.31
2023-04-22T07:12:03.244Z,1.33
2023-04-22T07:13:02.948Z,1.34
2023-04-22T07:14:03.556Z,1.36
2023-04-22T07:15:03.028Z,1.37
2023-04-22T07:16:03.357Z,1.38
2023-04-22T07:17:03.305Z,1.39
2023-04-22T07:18:03.141Z,1.41
2023-04-22T07:19:03.232Z,1.32
2023-04-22T07:20:03.182Z,1.35
2023-04-22T07:21:03.182Z,1.44
2023-04-22T07:22:03.704Z,1.45
2023-04-22T07:23:03.604Z,1.45
2023-04-22T07:24:03.578Z,1.46
2023-04-22T07:25:03.638Z,1.47
2023-04-22T07:26:03.632Z,1.48
2023-04-22T07:27:03.066Z,1.50
2023-04-22T07:28:03.037Z,1.47
2023-04-22T07:29:03.051Z,1.53
2023-04-22T07:30:03.223Z,1.56
2023-04-22T07:31:02.613Z,1.56
2023-04-22T07:32:03.024Z,1.54
2023-04-22T07:33:03.134Z,1.55
2023-04-22T07:34:03.048Z,1.58
2023-04-22T07:35:03.119Z,1.61
2023-04-22T07:36:03.037Z,1.56
2023-04-22T07:37:03.700Z,1.52
2023-04-22T07:38:03.318Z,1.50
2023-04-22T07:39:03.395Z,1.59
2023-04-22T07:40:03.650Z,1.58
2023-04-22T07:41:03.593Z,1.58
2023-04-22T07:42:03.306Z,1.55
2023-04-22T07:43:03.351Z,1.53
2023-04-22T07:44:03.198Z,1.42
2023-04-22T07:45:03.059Z,1.30
2023-04-22T07:46:03.142Z,1.44
2023-04-22T07:47:03.439Z,1.40
2023-04-22T07:48:03.517Z,1.45
2023-04-22T07:49:03.344Z,1.47
2023-04-22T07:50:03.357Z,1.52
2023-04-22T07:51:03.167Z,1.52
2023-04-22T07:52:03.005Z,1.51
2023-04-22T07:53:02.788Z,1.54
2023-04-22T07:54:03.057Z,1.60
2023-04-22T07:55:02.878Z,1.62
2023-04-22T07:56:02.943Z,1.67
2023-04-22T07:57:03.055Z,1.52
2023-04-22T07:58:02.833Z,1.46
2023-04-22T07:59:02.929Z,1.67
2023-04-22T08:00:02.871Z,1.69
2023-04-22T08:01:02.873Z,1.65
2023-04-22T08:02:02.391Z,1.69
2023-04-22T08:03:02.417Z,1.65
2023-04-22T08:04:02.431Z,1.71
2023-04-22T08:05:02.054Z,1.81
2023-04-22T08:06:02.244Z,1.84
2023-04-22T08:07:09.259Z,1.88
2023-04-22T08:08:02.186Z,1.89
2023-04-22T08:09:02.237Z,1.80
2023-04-22T08:10:02.284Z,1.76
2023-04-22T08:11:02.341Z,1.78
2023-04-22T08:12:02.962Z,1.81
2023-04-22T08:13:02.797Z,1.82
2023-04-22T08:14:02.716Z,1.88
2023-04-22T08:15:02.615Z,1.87
2023-04-22T08:16:02.667Z,1.89
2023-04-22T08:17:03.030Z,1.78
2023-04-22T08:18:03.154Z,1.89
2023-04-22T08:19:03.056Z,1.93
2023-04-22T08:20:02.635Z,2.01
2023-04-22T08:21:02.671Z,2.01
2023-04-22T08:22:01.805Z,1.95
2023-04-22T08:23:02.480Z,1.91
2023-04-22T08:24:02.299Z,1.78
2023-04-22T08:25:02.159Z,1.68
2023-04-22T08:26:02.265Z,1.70
2023-04-22T08:27:02.760Z,1.75
2023-04-22T08:28:02.404Z,1.77
2023-04-22T08:29:02.469Z,1.82
2023-04-22T08:30:02.456Z,1.90
2023-04-22T08:31:02.490Z,1.91
2023-04-22T08:32:02.578Z,1.95
2023-04-22T08:33:02.795Z,1.78
2023-04-22T08:34:02.760Z,1.79
2023-04-22T08:35:05.668Z,1.99
2023-04-22T08:36:02.863Z,1.98
2023-04-22T08:37:02.083Z,1.89
2023-04-22T08:38:02.486Z,1.98
2023-04-22T08:39:02.091Z,1.91
2023-04-22T08:40:02.070Z,1.95
2023-04-22T08:41:02.203Z,1.87
2023-04-22T08:42:02.188Z,1.94
2023-04-22T08:43:02.333Z,2.19
2023-04-22T08:44:02.782Z,2.20
2023-04-22T08:45:02.575Z,2.18
2023-04-22T08:46:02.794Z,1.97
2023-04-22T08:47:03.036Z,2.29
2023-04-22T08:48:02.886Z,2.38
2023-04-22T08:49:02.734Z,2.34
2023-04-22T08:50:02.704Z,2.22
2023-04-22T08:51:02.899Z,2.13
2023-04-22T08:52:02.156Z,2.00
2023-04-22T08:53:02.030Z,1.88
2023-04-22T08:54:02.736Z,1.90
2023-04-22T08:55:02.485Z,2.00
2023-04-22T08:56:02.511Z,1.78
2023-04-22T08:57:02.563Z,1.96
2023-04-22T08:58:02.942Z,1.96
2023-04-22T08:59:02.992Z,1.99
2023-04-22T09:00:02.799Z,1.96
2023-04-22T09:01:02.980Z,1.91
2023-04-22T09:02:02.210Z,1.95
2023-04-22T09:03:02.265Z,1.95
2023-04-22T09:04:02.192Z,2.00
2023-04-22T09:05:02.023Z,2.10
2023-04-22T09:06:02.081Z,2.03
2023-04-22T09:07:01.897Z,2.04
2023-04-22T09:08:01.880Z,2.07
2023-04-22T09:09:01.955Z,1.94
2023-04-22T09:10:01.879Z,1.78
2023-04-22T09:11:02.254Z,1.78
2023-04-22T09:12:02.068Z,2.06
2023-04-22T09:13:01.978Z,2.27
2023-04-22T09:14:02.065Z,2.31
2023-04-22T09:15:02.131Z,2.35
2023-04-22T09:16:02.260Z,2.43
2023-04-22T09:17:02.259Z,2.37
2023-04-22T09:18:02.303Z,2.23
2023-04-22T09:19:02.423Z,1.85
2023-04-22T09:20:02.310Z,1.46
2023-04-22T09:21:02.281Z,1.82
2023-04-22T09:22:02.278Z,2.40
2023-04-22T09:23:02.683Z,2.71
2023-04-22T09:24:02.483Z,2.82
2023-04-22T09:25:02.436Z,2.83
2023-04-22T09:26:02.540Z,2.86
2023-04-22T09:27:02.645Z,2.87
2023-04-22T09:28:02.766Z,2.82
2023-04-22T09:29:02.597Z,2.76
2023-04-22T09:30:02.645Z,2.93
2023-04-22T09:31:02.720Z,2.86
2023-04-22T09:32:02.178Z,2.99
2023-04-22T09:33:02.550Z,2.98
2023-04-22T09:34:02.367Z,2.95
2023-04-22T09:35:02.476Z,2.58
2023-04-22T09:36:02.358Z,2.86
2023-04-22T09:37:02.326Z,2.88
2023-04-22T09:38:02.442Z,2.11
2023-04-22T09:39:02.508Z,1.78
2023-04-22T09:40:02.505Z,1.91
2023-04-22T09:41:02.136Z,2.15
2023-04-22T09:42:02.775Z,2.25
2023-04-22T09:43:02.857Z,2.07
2023-04-22T09:44:03.003Z,1.82
2023-04-22T09:45:02.597Z,1.92
2023-04-22T09:46:02.726Z,1.61
2023-04-22T09:47:02.356Z,1.71
2023-04-22T09:48:02.448Z,2.44
2023-04-22T09:49:02.410Z,2.18
2023-04-22T09:50:02.453Z,2.56
2023-04-22T09:51:02.387Z,2.23
2023-04-22T09:52:02.969Z,1.61
2023-04-22T09:53:02.906Z,1.35
2023-04-22T09:54:03.030Z,1.07
2023-04-22T09:55:03.181Z,1.07
2023-04-22T09:56:03.192Z,1.18
2023-04-22T09:57:02.298Z,1.17
2023-04-22T09:58:02.245Z,1.16
2023-04-22T09:59:02.309Z,1.68
2023-04-22T10:00:02.408Z,1.36
2023-04-22T10:01:02.293Z,1.28
2023-04-22T10:02:02.629Z,1.93
2023-04-22T10:03:02.775Z,2.54
2023-04-22T10:04:02.535Z,2.35
2023-04-22T10:05:02.714Z,2.39
2023-04-22T10:06:02.801Z,2.71
2023-04-22T10:07:02.964Z,2.61
2023-04-22T10:08:03.033Z,2.46
2023-04-22T10:09:02.896Z,2.83
2023-04-22T10:10:03.023Z,3.00
2023-04-22T10:11:02.981Z,2.94
2023-04-22T10:12:02.970Z,2.90
2023-04-22T10:13:03.056Z,2.85
2023-04-22T10:14:03.236Z,2.62
2023-04-22T10:15:03.112Z,2.85
2023-04-22T10:16:03.198Z,2.66
2023-04-22T10:17:03.094Z,2.83
2023-04-22T10:18:03.124Z,2.92
2023-04-22T10:19:02.774Z,2.65
2023-04-22T10:20:02.893Z,2.58
2023-04-22T10:21:02.818Z,2.80
2023-04-22T10:22:02.730Z,2.59
2023-04-22T10:23:02.742Z,1.52
2023-04-22T10:24:02.454Z,1.32
2023-04-22T10:25:02.849Z,1.21
2023-04-22T10:26:02.705Z,1.20
2023-04-22T10:27:02.939Z,1.25
2023-04-22T10:28:02.921Z,1.37
2023-04-22T10:29:02.994Z,1.41
2023-04-22T10:30:03.115Z,1.59
2023-04-22T10:31:02.997Z,1.64
2023-04-22T10:32:03.173Z,1.75
2023-04-22T10:33:03.361Z,1.98
2023-04-22T10:34:02.770Z,2.15
2023-04-22T10:35:03.138Z,2.19
2023-04-22T10:36:03.184Z,2.24
2023-04-22T10:37:03.562Z,2.37
2023-04-22T10:38:03.659Z,2.41
2023-04-22T10:39:03.800Z,2.46
2023-04-22T10:40:03.647Z,2.52
2023-04-22T10:41:03.949Z,2.55
2023-04-22T10:42:03.580Z,2.42
2023-04-22T10:43:03.710Z,2.79
2023-04-22T10:44:03.496Z,2.82
2023-04-22T10:45:03.835Z,2.78
2023-04-22T10:46:03.866Z,2.64
2023-04-22T10:47:02.935Z,2.55
2023-04-22T10:48:02.574Z,2.61
2023-04-22T10:49:02.593Z,2.43
2023-04-22T10:50:02.669Z,2.44
2023-04-22T10:51:02.803Z,2.90
2023-04-22T10:52:03.206Z,2.83
2023-04-22T10:53:03.136Z,2.67
2023-04-22T10:54:02.897Z,2.41
2023-04-22T10:55:03.014Z,2.34
2023-04-22T10:56:03.138Z,2.29
2023-04-22T10:57:02.946Z,2.33
2023-04-22T10:58:02.725Z,2.18
2023-04-22T10:59:02.721Z,2.04
2023-04-22T11:00:02.973Z,2.01
2023-04-22T11:01:02.893Z,2.21
2023-04-22T11:02:02.681Z,2.41
2023-04-22T11:03:02.594Z,2.52
2023-04-22T11:04:02.554Z,2.12
2023-04-22T11:05:02.462Z,1.98
2023-04-22T11:06:02.409Z,1.63
2023-04-22T11:07:03.126Z,1.56
2023-04-22T11:08:02.967Z,1.58
2023-04-22T11:09:02.913Z,1.68
2023-04-22T11:10:02.662Z,2.05
2023-04-22T11:11:02.620Z,1.83
2023-04-22T11:12:03.139Z,1.75
2023-04-22T11:13:02.985Z,2.07
2023-04-22T11:14:02.791Z,2.15
2023-04-22T11:15:03.183Z,2.11
2023-04-22T11:16:02.860Z,2.03
2023-04-22T11:17:03.349Z,2.15
2023-04-22T11:18:03.244Z,2.12
2023-04-22T11:19:03.030Z,1.92
2023-04-22T11:20:03.251Z,1.69
2023-04-22T11:21:03.450Z,1.67
2023-04-22T11:22:02.877Z,1.70
2023-04-22T11:23:02.897Z,1.69
2023-04-22T11:24:02.625Z,1.95
2023-04-22T11:25:02.531Z,2.14
2023-04-22T11:26:02.717Z,2.08
2023-04-22T11:27:03.370Z,1.88
2023-04-22T11:28:03.261Z,1.91
2023-04-22T11:29:02.772Z,2.14
2023-04-22T11:30:02.953Z,2.69
2023-04-22T11:31:03.448Z,2.47
2023-04-22T11:32:03.475Z,2.56
2023-04-22T11:33:03.602Z,2.98
2023-04-22T11:34:03.321Z,3.08
2023-04-22T11:35:03.418Z,2.87
2023-04-22T11:36:03.136Z,2.79
2023-04-22T11:37:02.406Z,2.49
2023-04-22T11:38:02.895Z,2.46
2023-04-22T11:39:02.840Z,2.47
2023-04-22T11:40:27.371Z,2.26
2023-04-22T11:41:02.455Z,2.14
2023-04-22T11:42:02.530Z,1.96
2023-04-22T11:43:02.724Z,1.93
2023-04-22T11:44:03.114Z,1.83
2023-04-22T11:45:03.035Z,1.90
2023-04-22T11:46:03.278Z,1.97
2023-04-22T11:47:02.655Z,2.01
2023-04-22T11:48:02.846Z,2.10
2023-04-22T11:49:02.974Z,1.94
2023-04-22T11:50:03.201Z,1.88
2023-04-22T11:51:02.865Z,1.82
2023-04-22T11:52:02.951Z,1.71
2023-04-22T11:53:02.112Z,1.70
2023-04-22T11:54:02.143Z,1.82
2023-04-22T11:55:02.188Z,1.97
2023-04-22T11:56:02.491Z,1.88
2023-04-22T11:57:02.082Z,1.92
2023-04-22T11:58:02.269Z,1.98
2023-04-22T11:59:02.446Z,2.04
2023-04-22T12:00:02.362Z,2.08
2023-04-22T12:01:02.624Z,1.99
2023-04-22T12:02:02.722Z,1.85
2023-04-22T12:03:03.128Z,1.73
2023-04-22T12:04:03.618Z,1.74
2023-04-22T12:05:03.544Z,1.77
2023-04-22T12:06:02.859Z,1.95
2023-04-22T12:07:03.229Z,2.40
2023-04-22T12:08:02.823Z,2.19
2023-04-22T12:09:02.936Z,2.05
2023-04-22T12:10:03.033Z,1.96
2023-04-22T12:11:02.450Z,1.89
2023-04-22T12:12:02.571Z,1.84
2023-04-22T12:13:03.413Z,1.84
2023-04-22T12:14:03.450Z,1.76
2023-04-22T12:15:03.472Z,1.70
2023-04-22T12:16:03.425Z,1.65
2023-04-22T12:17:03.419Z,1.57
2023-04-22T12:18:03.624Z,1.51
2023-04-22T12:19:03.682Z,1.46
2023-04-22T12:20:03.403Z,1.45
2023-04-22T12:21:03.588Z,1.49
2023-04-22T12:22:03.318Z,1.50
2023-04-22T12:23:02.816Z,1.51
2023-04-22T12:24:02.805Z,1.51
2023-04-22T12:25:02.787Z,1.50
2023-04-22T12:26:03.040Z,1.50
2023-04-22T12:27:03.282Z,1.54
2023-04-22T12:28:03.546Z,1.61
2023-04-22T12:29:03.540Z,1.63
2023-04-22T12:30:03.297Z,1.65
2023-04-22T12:31:03.150Z,1.68
2023-04-22T12:32:03.593Z,1.69
2023-04-22T12:33:03.252Z,1.68
2023-04-22T12:34:03.036Z,1.67
2023-04-22T12:35:03.234Z,1.68
2023-04-22T12:36:03.225Z,1.70
2023-04-22T12:37:03.311Z,1.75
2023-04-22T12:38:03.222Z,1.70
2023-04-22T12:39:03.310Z,1.67
2023-04-22T12:40:03.150Z,1.66
2023-04-22T12:41:02.790Z,1.69
2023-04-22T12:42:03.215Z,1.68
2023-04-22T12:43:03.181Z,1.67
2023-04-22T12:44:03.202Z,1.68
2023-04-22T12:45:03.390Z,1.73
2023-04-22T12:46:03.200Z,1.80
2023-04-22T12:47:02.888Z,2.36
2023-04-22T12:48:03.540Z,2.41
2023-04-22T12:49:03.718Z,1.93
2023-04-22T12:50:03.552Z,1.80
2023-04-22T12:51:03.730Z,1.80
2023-04-22T12:52:03.548Z,1.68
2023-04-22T12:53:03.506Z,1.52
2023-04-22T12:54:03.476Z,1.37
2023-04-22T12:55:02.881Z,1.25
2023-04-22T12:56:03.026Z,1.17
2023-04-22T12:57:02.983Z,1.05
2023-04-22T12:58:03.579Z,0.87
2023-04-22T12:59:03.616Z,0.71
2023-04-22T13:00:03.805Z,0.60
2023-04-22T13:01:03.844Z,0.54
2023-04-22T13:02:03.992Z,0.50
2023-04-22T13:03:03.135Z,0.50
2023-04-22T13:04:03.001Z,0.53
2023-04-22T13:05:03.010Z,0.54
2023-04-22T13:06:02.799Z,0.54
2023-04-22T13:07:02.929Z,0.55
2023-04-22T13:08:06.970Z,0.55
2023-04-22T13:09:02.197Z,0.55
2023-04-22T13:10:02.513Z,0.56
2023-04-22T13:11:02.426Z,0.57
2023-04-22T13:12:02.531Z,0.57
2023-04-22T13:13:15.863Z,0.56
2023-04-22T13:14:02.664Z,0.56
2023-04-22T13:15:02.712Z,0.59
2023-04-22T13:16:02.713Z,0.61
2023-04-22T13:17:02.819Z,0.62
2023-04-22T13:18:01.944Z,0.64